Kilgore, Kentucky
Current Conditions -  °F | °C
As of 4:51 PM on Sunday 23 Nov 2014 (Local Time) from KHTS Reporting Station
Light Rain Light Rain  
Wind Chill: 57°   Ceiling: 8000
Heat Index: 57°   Visibility: 6mi
Dew Point: 51°   Wind: 10mph
Humidity: 81%   Direction: 130°SE
Pressure: 29.7"   Gusts: NA
Location:  38.2878°N, 82.7547°W
Report Text: KHTS 232151Z 13009KT 6SM -RA SCT065 BKN080 OVC095 14/11 A2970 RMK AO2 SLP055 P0001 T01390106
Loading
Personal Weather Stations






























Interactive Weather Map New forecast layout! Learn more

10-Day Weather Forecast

Advertisements
Track Severe Weather on mobile